Khwd ardhayy zn

FAA aeronautical and local business information for airport Hayward Exec Airport (KHWD), CA, US, covering airport operations, communications, weather, runways, comments and remarks, approach plates and procedures, services, all reporting businesses and FBOs, and kneeboard print outs..

Hayward Executive Airport. / 37.65889°N 122.12167°W / 37.65889; -122.12167. Hayward Executive Airport ( IATA: HWD, ICAO: KHWD, FAA LID: HWD) is a municipal airport in Hayward, California. [1] The National Plan of Integrated Airport Systems for 2023–2027 categorized it as a reliever airport. [2]JetPhotos.com is the biggest database of aviation photographs with over 6 million screened photos online!

Did you know?

Gained some IMC time today flying with my IFR client. Shooting the RNAV RWY 28L approach to KHWD.I’m currently working on PPL at KHWD. You have to keep your base tight for RWY 10s because of OAK’s Class C. And also noise abatement, I believe. extends downwind at most bay area airports (angry serco tower noises!) Has anyone flown Hayward before with the 10s active? I know they don’t want you flying over the golf course during normal ...METAR KHWD 231054Z AUTO 21010KT 10SM OVC026 14/09 A2989 RMK AO2 SLP130 T01440089. The wind is from direction 210° with a speed of 10 kt. Visibility is 10 mi. The ceiling, broken or more, is 2,600 ft. The temperature and wind chill are 14 °C. Hayward Executive Airport KHWD · California, United States.Forecast at KHWD. No Forecast Reports for KHWD. The worlds largest airport database! Maintained by pilots, flight simulator enthusiast, and members of the aviation community.

Zoom Zoom In: Hover over plot, left click and drag Zoom Out: Hover over plot, left clickMETAR KHWD 142354Z 28013KT 10SM SCT050 16/08 A3012 RMK AO2 SLP209 T01610078 10178 20122 56003. The wind is from direction 280° with a speed of 13 kt. Visibility is 10 mi. No ceiling has been observed. The temperature and wind chill are 16 °C.FAA aeronautical and local business information for airport Hayward Exec Airport (KHWD), CA, US, covering airport operations, communications, weather, runways, comments and remarks, approach plates and procedures, services, all reporting businesses and FBOs, and kneeboard print outs.About Press Copyright Contact us Creators Advertise Developers Terms Privacy Policy & Safety How YouTube works Test new features NFL Sunday Ticket Press Copyright ...

Hayward Executive Airport, (HWD/KHWD), United States - View live flight arrival and departure information, live flight delays and cancelations, and current weather conditions …Movie studios are relying on too few films for too much of their profits, according to a movie analyst. By clicking "TRY IT", I agree to receive newsletters and promotions from Mon...This is a nicely detailed edit for Hayward Airport in the East Bay of California. It's my first airport for X-plane so hopefully there aren't too many mistakes. I do have to apologize for the lack of taxi lines. As far as I know, I set up the taxi lines in World Editor correctly, with green lights and solid lines checked in the options. ….

Reader Q&A - also see RECOMMENDED ARTICLES & FAQs. Khwd ardhayy zn. Possible cause: Not clear khwd ardhayy zn.

Ratings and Reviews. Name APP Jet Center Hayward. Contact129.725. Contact+1-510-259-1347. Ready to Taxi™ Available. 100LL$7.74. 100LL SS. Jet A$5.74. Jet A+Prist$5.83.Sweep, a no-code config tool for Salesforce customer relationship management software, has raised $28 million in venture backing. Businesses often encounter challenges in configuri...Flying Friday Lets Be Friends And Talk Here Send Me A MessageFor business inquiries message me on my instagramhttps://www.instagram.com/natet0n/See me stream...

Qahraman Khwd is on Facebook. Join Facebook to connect with Qahraman Khwd and others you may know. Facebook gives people the power to share and makes the world more open and connected.Address: 21889 SKYWEST DR., HAYWARD, CA 94541. Land at any FBO in our growing worldwide network and you'll receive a warm, friendly Signature greeting. Consistent, exceptional service. Line support that's expert, safe and ready on the ramp. Clean, comfortable, well-furnished facilities.

silver oak casino dollar100 no deposit What Can We Help You Find? SearchMETAR KHWD 251454Z 23007KT 10SM OVC011 14/09 A3009 RMK AO2 SLP199 T01390094 53009. The wind is from direction 230° with a speed of 7 kt. Visibility is 10 mi. The ceiling, broken or more, is 1,100 ft. The temperature and wind chill are 14 °C. Hayward Executive Airport KHWD · California, United States. fylm sksanafgha ny shot by KHWD with care and love, so proud of this shot.... wanting to get to 200 faves, an ambition for a newbie to Flickr like me! UPDATE: one of my 2 in explore images , so proud sks arby hlw KHWD: Hayward Executive Airport Hayward, California, USA: GOING TO HAYWARD? Reserve a Hotel Room: Where will you pickup your Hertz vehicle? • APP Jet Center Hayward; FAA INFORMATION EFFECTIVE 26 JANUARY 2023 Location. FAA Identifier: HWD: Lat/Long: 37-39-32.1427N 122-07-18.2538W 37-39.535712N 122-07.304230WYou are listening to: KHWD Ground/Tower - Hayward, California, United States. KHWD 262054Z 28009KT 10SM CLR 22/10 A3003 RMK AO2 SLP177 T02170100 58006. tony boloneymodele 3dsks zybayy METAR KHWD 070654Z AUTO 00000KT 10SM CLR 11/05 A3027 RMK AO2 SLP259 T01060050 $. There is little or no wind from a variable direction. Visibility is 10 mi. No ceiling has been observed. The temperature and wind chill are 11 °C. Hayward Executive Airport KHWD · California, United States. sks zndh Standard Electrode Potentials. To measure the potential of the Cu/Cu 2 + couple, we can construct a galvanic cell analogous to the one shown in Figure \(\PageIndex{3}\) but containing a Cu/Cu 2 + couple in the sample compartment instead of Zn/Zn 2 +.When we close the circuit this time, the measured potential for the cell is negative (−0.34 V) rather than positive. eizo grafikkarte med xn72twitter turk ifsa guncelsks kwtwlh ha Station Info. Don't get blown away by the weather in KHWD hayward, ca. WindAlert has the latest weather conditions, winds, forecasts, nearby currents, and alerts for the area!KHWD HWD HWD HAYWARD EXEC AIRPORT: HAYWARD, CA, USA: Airport Info. Suggest Updated Information for this Airport: Location: Latitude / Longitude: 37°39'32"N / 122°7'18"W : 37°39.5359'N / 122°7.3043'W : 37.6589 / -122.1217: Elevation: 52.1 ft. (surveyed) Variation: 15E (2005) From city: 02 miles W of HAYWARD, CA ...